Time;durP1;ratioP1;P1;durP2;ratioP2;P2;SDS_P1;SDS_P2;PMS_P1;PMS_P2;Temp;Humidity;BMP_temperature;BMP_pressure;BME280_temperature;BME280_humidity;BME280_pressure;Samples;Min_cycle;Max_cycle;Signal;HPM_P1;HPM_P2
2023/05/05 00:00:33;;;;;;;;;;;13.00;99.90;;;;;;5093026;28;19925;-78
2023/05/05 00:02:59;;;;;;;;;;;13.00;99.90;;;;;;5040831;28;19924;-79
2023/05/05 00:05:24;;;;;;;;;;;13.00;99.90;;;;;;5080915;28;19929;-78
2023/05/05 00:07:50;;;;;;;;;;;13.00;99.90;;;;;;5042869;28;19924;-78
2023/05/05 00:10:16;;;;;;;;;;;13.10;99.90;;;;;;5075656;28;20011;-78
2023/05/05 00:12:41;;;;;;;;;;;13.10;99.90;;;;;;5074347;28;20211;-78
2023/05/05 00:15:07;;;;;;;;;;;13.10;99.90;;;;;;5073934;28;19939;-78
2023/05/05 00:17:33;;;;;;;;;;;13.00;99.90;;;;;;5073403;28;19932;-78
2023/05/05 00:19:58;;;;;;;;;;;13.00;99.90;;;;;;5071298;28;20399;-78
2023/05/05 00:22:24;;;;;;;;;;;13.00;99.90;;;;;;5040450;28;19929;-78
2023/05/05 00:24:50;;;;;;;;;;;13.00;99.90;;;;;;5093246;28;20510;-84
2023/05/05 00:27:15;;;;;;;;;;;13.00;99.90;;;;;;5074788;28;19925;-78
2023/05/05 00:29:41;;;;;;;;;;;13.00;99.90;;;;;;5093331;28;20015;-78
2023/05/05 00:32:06;;;;;;;;;;;13.00;99.90;;;;;;5058856;28;19928;-78
2023/05/05 00:34:32;;;;;;;;;;;12.90;99.90;;;;;;5093375;28;19928;-78
2023/05/05 00:36:57;;;;;;;;;;;12.90;99.90;;;;;;5077367;28;19972;-78
2023/05/05 00:39:23;;;;;;;;;;;12.90;99.90;;;;;;5075393;28;19985;-78
2023/05/05 00:41:49;;;;;;;;;;;12.90;99.90;;;;;;5093040;28;19931;-79
2023/05/05 00:44:14;;;;;;;;;;;12.90;99.90;;;;;;5075348;28;19935;-78
2023/05/05 00:46:40;;;;;;;;;;;12.90;99.90;;;;;;5059483;28;19947;-78
2023/05/05 00:49:06;;;;;;;;;;;12.90;99.90;;;;;;5092490;28;19980;-78
2023/05/05 00:51:32;;;;;;;;;;;12.80;99.90;;;;;;5076957;28;20011;-78
2023/05/05 00:53:57;;;;;;;;;;;12.80;99.90;;;;;;5074742;28;19928;-78
2023/05/05 00:56:23;;;;;;;;;;;12.80;99.90;;;;;;5050515;28;19997;-78
2023/05/05 00:58:49;;;;;;;;;;;12.80;99.90;;;;;;5058772;28;19928;-78
2023/05/05 01:01:15;;;;;;;;;;;12.80;99.90;;;;;;5091740;28;20468;-79
2023/05/05 01:03:40;;;;;;;;;;;12.80;99.90;;;;;;5093374;28;19963;-79
2023/05/05 01:06:32;;;;;;;;;;;12.70;99.90;;;;;;5092190;28;19924;-86
2023/05/05 01:09:01;;;;;;;;;;;12.70;99.90;;;;;;5094153;28;20371;-80
2023/05/05 01:11:41;;;;;;;;;;;12.70;99.90;;;;;;5086663;28;19924;-79
2023/05/05 01:14:09;;;;;;;;;;;12.60;99.90;;;;;;5090847;28;19929;-80
2023/05/05 01:16:39;;;;;;;;;;;12.60;99.90;;;;;;5071353;28;21374;-80
2023/05/05 01:19:25;;;;;;;;;;;12.60;99.90;;;;;;5059585;28;19946;-80
2023/05/05 01:21:54;;;;;;;;;;;12.60;99.90;;;;;;5065902;28;19924;-79
2023/05/05 01:24:46;;;;;;;;;;;12.60;99.90;;;;;;5060357;28;19957;-79
2023/05/05 01:27:15;;;;;;;;;;;12.60;99.90;;;;;;5056925;28;19928;-80
2023/05/05 01:29:53;;;;;;;;;;;12.60;99.90;;;;;;5077888;28;19924;-79
2023/05/05 01:32:24;;;;;;;;;;;12.60;99.90;;;;;;5094210;28;19925;-79
2023/05/05 01:35:09;;;;;;;;;;;12.60;99.90;;;;;;5096371;28;20009;-80
2023/05/05 01:37:39;;;;;;;;;;;12.70;99.90;;;;;;5063582;28;19994;-80
2023/05/05 01:40:06;;;;;;;;;;;12.60;99.90;;;;;;5061693;28;19928;-79
2023/05/05 01:42:34;;;;;;;;;;;12.60;99.90;;;;;;5066859;28;19924;-79
2023/05/05 01:45:00;;;;;;;;;;;12.60;99.90;;;;;;5078809;28;19924;-80
2023/05/05 01:47:27;;;;;;;;;;;12.60;99.90;;;;;;5063313;28;20157;-80
2023/05/05 01:49:52;;;;;;;;;;;12.50;99.90;;;;;;5061879;28;19944;-80
2023/05/05 01:52:18;;;;;;;;;;;12.50;99.90;;;;;;5078106;28;19928;-80
2023/05/05 01:54:44;;;;;;;;;;;12.50;99.90;;;;;;5079816;28;20068;-80
2023/05/05 01:57:11;;;;;;;;;;;12.40;99.90;;;;;;5078753;28;19931;-80
2023/05/05 01:59:38;;;;;;;;;;;12.40;99.90;;;;;;5095240;28;19924;-80
2023/05/05 02:02:04;;;;;;;;;;;12.30;99.90;;;;;;5094336;28;19958;-80
2023/05/05 02:04:31;;;;;;;;;;;12.30;99.90;;;;;;5062976;28;19939;-80
2023/05/05 02:06:58;;;;;;;;;;;12.30;99.90;;;;;;5093763;28;19965;-80
2023/05/05 02:09:24;;;;;;;;;;;12.20;99.90;;;;;;5094829;28;19924;-80
2023/05/05 02:11:50;;;;;;;;;;;12.20;99.90;;;;;;5073868;28;19982;-80
2023/05/05 02:14:18;;;;;;;;;;;12.20;99.90;;;;;;5062465;28;19979;-79
2023/05/05 02:16:43;;;;;;;;;;;12.20;99.90;;;;;;5060493;28;19950;-79
2023/05/05 02:19:11;;;;;;;;;;;12.20;99.90;;;;;;5074471;28;19984;-79
2023/05/05 02:21:36;;;;;;;;;;;12.10;99.90;;;;;;5062611;28;19946;-80
2023/05/05 02:24:02;;;;;;;;;;;12.10;99.90;;;;;;5095477;28;19955;-79
2023/05/05 02:26:29;;;;;;;;;;;12.10;99.90;;;;;;5091190;28;19935;-80
2023/05/05 02:29:01;;;;;;;;;;;12.10;99.90;;;;;;5075159;28;19959;-79
2023/05/05 02:31:27;;;;;;;;;;;12.10;99.90;;;;;;5060334;28;19950;-80
2023/05/05 02:33:54;;;;;;;;;;;12.10;99.90;;;;;;5095609;28;19971;-79
2023/05/05 02:36:21;;;;;;;;;;;12.10;99.90;;;;;;5094195;28;19981;-80
2023/05/05 02:38:49;;;;;;;;;;;12.20;99.90;;;;;;5061250;28;19968;-79
2023/05/05 02:41:17;;;;;;;;;;;12.10;99.90;;;;;;5078324;28;19925;-80
2023/05/05 02:43:43;;;;;;;;;;;12.20;99.90;;;;;;5060756;28;20082;-80
2023/05/05 02:46:08;;;;;;;;;;;12.10;99.90;;;;;;5060883;28;19925;-80
2023/05/05 02:48:34;;;;;;;;;;;12.00;99.90;;;;;;5061018;28;19932;-80
2023/05/05 02:51:00;;;;;;;;;;;12.00;99.90;;;;;;5077769;28;20024;-79
2023/05/05 02:53:26;;;;;;;;;;;12.10;99.90;;;;;;5094559;28;19931;-79
2023/05/05 02:56:00;;;;;;;;;;;12.00;99.90;;;;;;5095472;28;20448;-80
2023/05/05 02:58:33;;;;;;;;;;;12.10;99.90;;;;;;5061912;28;20010;-80
2023/05/05 03:01:15;;;;;;;;;;;12.10;99.90;;;;;;5078373;28;19936;-80
2023/05/05 03:03:49;;;;;;;;;;;12.10;99.90;;;;;;5062241;28;19928;-80
2023/05/05 03:06:16;;;;;;;;;;;12.10;99.90;;;;;;5076420;28;19937;-80
2023/05/05 03:08:48;;;;;;;;;;;12.10;99.90;;;;;;5095083;28;19924;-79
2023/05/05 03:11:17;;;;;;;;;;;12.10;99.90;;;;;;5094689;28;19932;-79
2023/05/05 03:13:42;;;;;;;;;;;12.10;99.90;;;;;;5093516;28;19925;-79
2023/05/05 03:16:09;;;;;;;;;;;12.10;99.90;;;;;;5093371;28;19924;-79
2023/05/05 03:18:38;;;;;;;;;;;12.10;99.90;;;;;;5077153;28;19936;-80
2023/05/05 03:21:07;;;;;;;;;;;12.20;99.90;;;;;;5077859;28;19924;-80
2023/05/05 03:23:33;;;;;;;;;;;12.20;99.90;;;;;;5075950;28;19936;-79
2023/05/05 03:25:59;;;;;;;;;;;12.20;99.90;;;;;;5077898;28;20302;-80
2023/05/05 03:28:25;;;;;;;;;;;12.20;99.90;;;;;;5061486;28;19931;-80
2023/05/05 03:30:51;;;;;;;;;;;12.20;99.90;;;;;;5060102;28;19924;-80
2023/05/05 03:33:17;;;;;;;;;;;12.20;99.90;;;;;;5092897;28;19935;-80
2023/05/05 03:35:42;;;;;;;;;;;12.20;99.90;;;;;;5089989;28;19936;-80
2023/05/05 03:38:08;;;;;;;;;;;12.20;99.90;;;;;;5057521;28;20301;-80
2023/05/05 03:40:33;;;;;;;;;;;12.20;99.90;;;;;;5058767;28;19924;-80
2023/05/05 03:42:59;;;;;;;;;;;12.30;99.90;;;;;;5093373;28;19931;-80
2023/05/05 03:45:25;;;;;;;;;;;12.20;99.90;;;;;;5075802;28;19925;-80
2023/05/05 03:47:50;;;;;;;;;;;12.30;99.90;;;;;;5094652;28;19939;-79
2023/05/05 03:50:16;;;;;;;;;;;12.20;99.90;;;;;;5093582;28;19930;-80
2023/05/05 03:52:42;;;;;;;;;;;12.20;99.90;;;;;;5092096;28;19992;-80
2023/05/05 03:55:07;;;;;;;;;;;12.10;99.90;;;;;;5093848;28;20378;-79
2023/05/05 03:57:33;;;;;;;;;;;12.10;99.90;;;;;;5094016;28;19932;-80
2023/05/05 03:59:59;;;;;;;;;;;12.10;99.90;;;;;;5059720;28;19925;-80
2023/05/05 04:02:25;;;;;;;;;;;12.10;99.90;;;;;;5042303;28;19925;-80
2023/05/05 04:04:50;;;;;;;;;;;12.00;99.90;;;;;;5062203;28;19951;-80
2023/05/05 04:07:16;;;;;;;;;;;12.00;99.90;;;;;;5076806;28;19924;-80
2023/05/05 04:09:43;;;;;;;;;;;12.00;99.90;;;;;;5091871;28;19995;-80
2023/05/05 04:12:09;;;;;;;;;;;12.10;99.90;;;;;;5059786;28;19971;-80
2023/05/05 04:14:35;;;;;;;;;;;12.00;99.90;;;;;;5076986;28;19955;-79
2023/05/05 04:17:01;;;;;;;;;;;12.00;99.90;;;;;;5059756;28;19936;-80
2023/05/05 04:19:26;;;;;;;;;;;12.00;99.90;;;;;;5075901;28;19971;-80
2023/05/05 04:21:52;;;;;;;;;;;12.00;99.90;;;;;;5076903;28;19924;-75
2023/05/05 04:24:21;;;;;;;;;;;12.00;99.90;;;;;;5074911;28;19924;-75
2023/05/05 04:26:47;;;;;;;;;;;11.90;99.90;;;;;;5092506;28;19931;-76
2023/05/05 04:29:12;;;;;;;;;;;11.90;99.90;;;;;;5075924;28;19928;-76
2023/05/05 04:31:38;;;;;;;;;;;11.80;99.90;;;;;;5041067;28;20427;-76
2023/05/05 04:34:04;;;;;;;;;;;11.70;99.90;;;;;;5083438;28;19966;-77
2023/05/05 04:36:29;;;;;;;;;;;11.70;99.90;;;;;;5091994;28;19928;-77
2023/05/05 04:38:55;;;;;;;;;;;11.60;99.90;;;;;;5059888;28;19947;-78
2023/05/05 04:41:20;;;;;;;;;;;11.60;99.90;;;;;;5076755;28;19931;-78
2023/05/05 04:43:46;;;;;;;;;;;11.60;99.90;;;;;;5076002;28;20046;-78
2023/05/05 04:46:12;;;;;;;;;;;11.50;99.90;;;;;;5075655;28;20399;-79
2023/05/05 04:48:37;;;;;;;;;;;11.50;99.90;;;;;;5075618;28;19928;-78
2023/05/05 04:51:06;;;;;;;;;;;11.50;99.90;;;;;;5060187;28;19943;-78
2023/05/05 04:53:32;;;;;;;;;;;11.50;99.90;;;;;;5059225;28;19924;-78
2023/05/05 04:56:01;;;;;;;;;;;11.50;99.90;;;;;;5075960;28;19932;-78
2023/05/05 04:58:27;;;;;;;;;;;11.40;99.90;;;;;;5080962;28;19925;-78
2023/05/05 05:00:52;;;;;;;;;;;11.30;99.90;;;;;;5080387;28;19939;-78
2023/05/05 05:03:18;;;;;;;;;;;11.20;99.90;;;;;;5079980;28;19947;-78
2023/05/05 05:05:44;;;;;;;;;;;11.20;99.90;;;;;;5060753;28;19964;-78
2023/05/05 05:08:09;;;;;;;;;;;11.10;99.90;;;;;;5077950;28;20264;-78
2023/05/05 05:10:35;;;;;;;;;;;11.00;99.90;;;;;;5096976;28;19940;-78
2023/05/05 05:13:00;;;;;;;;;;;11.00;99.90;;;;;;5097619;28;19954;-78
2023/05/05 05:15:26;;;;;;;;;;;11.00;99.90;;;;;;5078727;28;19931;-77
2023/05/05 05:17:52;;;;;;;;;;;11.10;99.90;;;;;;5045877;28;19932;-78
2023/05/05 05:20:17;;;;;;;;;;;11.20;99.90;;;;;;5076559;28;19946;-78
2023/05/05 05:22:43;;;;;;;;;;;11.30;99.90;;;;;;5096723;28;20422;-78
2023/05/05 05:25:09;;;;;;;;;;;11.40;99.90;;;;;;5080213;28;19932;-78
2023/05/05 05:27:34;;;;;;;;;;;11.40;99.90;;;;;;5079361;28;19947;-78
2023/05/05 05:30:00;;;;;;;;;;;11.60;99.90;;;;;;5096500;28;20291;-78
2023/05/05 05:32:26;;;;;;;;;;;11.70;99.90;;;;;;5080658;28;19928;-78
2023/05/05 05:34:51;;;;;;;;;;;11.90;99.90;;;;;;5079728;28;19991;-78
2023/05/05 05:37:17;;;;;;;;;;;12.40;99.90;;;;;;5079518;28;19925;-78
2023/05/05 05:39:42;;;;;;;;;;;12.90;99.90;;;;;;5084386;28;19979;-80
2023/05/05 05:42:08;;;;;;;;;;;13.50;99.90;;;;;;5091704;28;19929;-79
2023/05/05 05:44:34;;;;;;;;;;;13.70;99.90;;;;;;5079098;28;19931;-79
2023/05/05 05:46:59;;;;;;;;;;;13.80;99.90;;;;;;5061806;28;20245;-79
2023/05/05 05:49:25;;;;;;;;;;;13.80;99.90;;;;;;5095282;28;19936;-79
2023/05/05 05:51:50;;;;;;;;;;;13.70;99.90;;;;;;5095536;28;20383;-79
2023/05/05 05:54:16;;;;;;;;;;;13.40;99.90;;;;;;5096251;28;20408;-79
2023/05/05 05:56:41;;;;;;;;;;;13.40;99.90;;;;;;5077981;28;19955;-79
2023/05/05 05:59:08;;;;;;;;;;;13.80;99.90;;;;;;5078643;28;19931;-79
2023/05/05 06:01:34;;;;;;;;;;;14.10;99.90;;;;;;5078737;28;20390;-79
2023/05/05 06:04:00;;;;;;;;;;;14.50;99.90;;;;;;5079874;28;19928;-79
2023/05/05 06:06:26;;;;;;;;;;;14.90;99.90;;;;;;5077272;28;19925;-79
2023/05/05 06:08:52;;;;;;;;;;;15.40;99.90;;;;;;5077512;28;19925;-80
2023/05/05 06:11:17;;;;;;;;;;;15.70;99.90;;;;;;5065705;28;19950;-79
2023/05/05 06:13:43;;;;;;;;;;;16.10;99.90;;;;;;5077355;28;20349;-79
2023/05/05 06:16:09;;;;;;;;;;;16.50;99.90;;;;;;5079119;28;20358;-79
2023/05/05 06:18:34;;;;;;;;;;;16.80;99.90;;;;;;5095243;28;19974;-80
2023/05/05 06:21:01;;;;;;;;;;;17.20;99.90;;;;;;5078717;28;19938;-80
2023/05/05 06:23:26;;;;;;;;;;;17.50;99.90;;;;;;5073099;28;20015;-80
2023/05/05 06:25:54;;;;;;;;;;;17.80;99.90;;;;;;5078480;28;19968;-80
2023/05/05 06:28:20;;;;;;;;;;;18.20;99.90;;;;;;5042625;28;19938;-80
2023/05/05 06:30:45;;;;;;;;;;;18.50;99.90;;;;;;5072257;28;19924;-80
2023/05/05 06:33:11;;;;;;;;;;;18.70;99.90;;;;;;5074363;28;19928;-80
2023/05/05 06:35:37;;;;;;;;;;;18.90;99.90;;;;;;5096358;28;19970;-80
2023/05/05 06:38:03;;;;;;;;;;;19.00;99.90;;;;;;5077728;28;20015;-80
2023/05/05 06:40:28;;;;;;;;;;;19.00;99.90;;;;;;5076573;28;20026;-80
2023/05/05 06:42:54;;;;;;;;;;;19.10;99.90;;;;;;5093986;28;20399;-80
2023/05/05 06:45:20;;;;;;;;;;;19.30;99.90;;;;;;5077385;28;20394;-80
2023/05/05 06:47:45;;;;;;;;;;;19.60;99.90;;;;;;5044884;28;19936;-80
2023/05/05 06:50:11;;;;;;;;;;;20.00;99.90;;;;;;5091499;28;19972;-80
2023/05/05 06:52:37;;;;;;;;;;;20.30;99.90;;;;;;5077190;28;20025;-79
2023/05/05 06:55:03;;;;;;;;;;;20.40;97.70;;;;;;5077595;28;19939;-80
2023/05/05 06:57:28;;;;;;;;;;;20.00;99.90;;;;;;5094028;28;20374;-80
2023/05/05 06:59:54;;;;;;;;;;;19.40;99.10;;;;;;5061783;28;19924;-80
2023/05/05 07:02:20;;;;;;;;;;;19.10;99.70;;;;;;5075376;28;19924;-80
2023/05/05 07:04:45;;;;;;;;;;;18.90;99.90;;;;;;5068346;28;19925;-80
2023/05/05 07:07:11;;;;;;;;;;;18.80;99.90;;;;;;5077184;28;19925;-80
2023/05/05 07:09:37;;;;;;;;;;;18.70;99.90;;;;;;5092351;28;19925;-80
2023/05/05 07:12:02;;;;;;;;;;;18.80;99.90;;;;;;5061786;28;19959;-79
2023/05/05 07:14:28;;;;;;;;;;;18.80;99.90;;;;;;5078306;28;19963;-80
2023/05/05 07:16:53;;;;;;;;;;;18.80;99.90;;;;;;5096077;28;19929;-79
2023/05/05 07:19:19;;;;;;;;;;;18.80;99.90;;;;;;5059940;28;19931;-80
2023/05/05 07:21:46;;;;;;;;;;;19.10;99.90;;;;;;5072437;28;19925;-80
2023/05/05 07:24:11;;;;;;;;;;;19.60;99.90;;;;;;5093087;28;19924;-80
2023/05/05 07:26:37;;;;;;;;;;;20.10;99.90;;;;;;5090647;28;19996;-80
2023/05/05 07:29:04;;;;;;;;;;;20.80;99.90;;;;;;5091001;28;19928;-80
2023/05/05 07:31:30;;;;;;;;;;;21.20;98.40;;;;;;5093142;28;19938;-80
2023/05/05 07:33:55;;;;;;;;;;;21.50;98.30;;;;;;5093912;28;19955;-80
2023/05/05 07:36:21;;;;;;;;;;;21.60;99.90;;;;;;5076426;28;19925;-80
2023/05/05 07:38:47;;;;;;;;;;;21.90;98.20;;;;;;5076643;28;19980;-80
2023/05/05 07:41:12;;;;;;;;;;;22.20;98.60;;;;;;5077433;28;20330;-80
2023/05/05 07:43:40;;;;;;;;;;;22.40;94.90;;;;;;5079413;28;19925;-80
2023/05/05 07:46:05;;;;;;;;;;;22.60;98.00;;;;;;5074751;28;19954;-80
2023/05/05 07:48:31;;;;;;;;;;;22.70;98.30;;;;;;5093093;28;20403;-80
2023/05/05 07:50:57;;;;;;;;;;;22.70;97.80;;;;;;5077607;28;19979;-80
2023/05/05 07:53:22;;;;;;;;;;;22.70;98.40;;;;;;5076282;28;20196;-80
2023/05/05 07:55:48;;;;;;;;;;;22.80;97.10;;;;;;5076154;28;19924;-80
2023/05/05 07:58:13;;;;;;;;;;;22.80;95.90;;;;;;5054762;28;20011;-79
2023/05/05 08:00:39;;;;;;;;;;;22.90;97.70;;;;;;5092266;28;19935;-80
2023/05/05 08:03:05;;;;;;;;;;;23.00;96.50;;;;;;5076814;28;19924;-80
2023/05/05 08:05:30;;;;;;;;;;;23.00;95.90;;;;;;5076357;28;19928;-80
2023/05/05 08:07:56;;;;;;;;;;;23.00;97.30;;;;;;5077135;28;19932;-80
2023/05/05 08:10:22;;;;;;;;;;;23.10;98.20;;;;;;5091064;28;19947;-80
2023/05/05 08:12:47;;;;;;;;;;;23.20;97.80;;;;;;5075444;28;19950;-80
2023/05/05 08:15:13;;;;;;;;;;;23.20;98.20;;;;;;5075945;28;19986;-79
2023/05/05 08:17:46;;;;;;;;;;;22.90;97.30;;;;;;5092809;28;19935;-80
2023/05/05 08:20:12;;;;;;;;;;;22.70;98.60;;;;;;5090746;28;19951;-79
2023/05/05 08:22:37;;;;;;;;;;;22.70;99.90;;;;;;5069926;28;19925;-80
2023/05/05 08:25:03;;;;;;;;;;;22.70;99.20;;;;;;5077302;28;19965;-80
2023/05/05 08:27:30;;;;;;;;;;;22.70;99.90;;;;;;5059010;28;19932;-80
2023/05/05 08:29:57;;;;;;;;;;;22.70;99.70;;;;;;5059135;28;19947;-80
2023/05/05 08:32:22;;;;;;;;;;;22.70;99.90;;;;;;5042588;28;20015;-79
2023/05/05 08:34:48;;;;;;;;;;;22.60;99.90;;;;;;5075917;28;19967;-80
2023/05/05 08:37:13;;;;;;;;;;;22.60;99.90;;;;;;5076326;28;19924;-80
2023/05/05 08:39:39;;;;;;;;;;;22.70;99.40;;;;;;5073442;28;19932;-80
2023/05/05 08:42:05;;;;;;;;;;;22.90;99.90;;;;;;5072320;28;19929;-80
2023/05/05 08:44:30;;;;;;;;;;;23.00;99.90;;;;;;5035196;28;19924;-80
2023/05/05 08:46:59;;;;;;;;;;;23.20;99.90;;;;;;5094559;28;20322;-80
2023/05/05 08:49:25;;;;;;;;;;;23.20;99.90;;;;;;5059479;28;20015;-79
2023/05/05 08:51:51;;;;;;;;;;;23.40;98.60;;;;;;5077073;28;19924;-80
2023/05/05 08:54:21;;;;;;;;;;;23.50;99.90;;;;;;5094228;28;20014;-80
2023/05/05 08:56:49;;;;;;;;;;;23.70;99.90;;;;;;5060458;28;19924;-80
2023/05/05 08:59:15;;;;;;;;;;;23.90;98.40;;;;;;5061003;28;19932;-80
2023/05/05 09:01:41;;;;;;;;;;;23.90;99.90;;;;;;5059503;28;19979;-80
2023/05/05 09:04:07;;;;;;;;;;;23.80;97.40;;;;;;5061186;28;19929;-79
2023/05/05 09:06:34;;;;;;;;;;;23.90;99.90;;;;;;5059968;28;19942;-80
2023/05/05 09:09:00;;;;;;;;;;;23.80;97.90;;;;;;5040315;28;19925;-80
2023/05/05 09:11:26;;;;;;;;;;;23.70;98.80;;;;;;5036099;28;19931;-81
2023/05/05 09:13:52;;;;;;;;;;;23.60;99.60;;;;;;5068104;28;20007;-80
2023/05/05 09:16:18;;;;;;;;;;;23.60;99.90;;;;;;5093668;28;19947;-80
2023/05/05 09:18:44;;;;;;;;;;;23.80;99.30;;;;;;5075006;28;19929;-80
2023/05/05 09:21:20;;;;;;;;;;;23.90;96.20;;;;;;5076521;28;19963;-79
2023/05/05 09:24:15;;;;;;;;;;;24.00;98.80;;;;;;5073294;28;19924;-79
2023/05/05 09:26:42;;;;;;;;;;;24.10;98.80;;;;;;5084318;28;19924;-80
2023/05/05 09:29:08;;;;;;;;;;;24.10;97.20;;;;;;5094013;28;19925;-80
2023/05/05 09:31:35;;;;;;;;;;;23.80;96.30;;;;;;5061224;28;20033;-80
2023/05/05 09:34:02;;;;;;;;;;;23.30;95.10;;;;;;5051366;28;19929;-79
2023/05/05 09:37:00;;;;;;;;;;;22.80;98.10;;;;;;5088823;28;19947;-79
2023/05/05 09:39:26;;;;;;;;;;;22.70;98.60;;;;;;5057512;28;19993;-79
2023/05/05 09:41:51;;;;;;;;;;;23.00;99.90;;;;;;5094219;28;20330;-79
2023/05/05 09:44:31;;;;;;;;;;;23.30;98.20;;;;;;5078851;28;19974;-80
2023/05/05 09:46:57;;;;;;;;;;;23.70;97.70;;;;;;5063526;28;19936;-82
2023/05/05 09:49:24;;;;;;;;;;;23.60;96.60;;;;;;5089766;28;19928;-80
2023/05/05 09:51:51;;;;;;;;;;;23.40;95.40;;;;;;5067776;28;19929;-79
2023/05/05 09:54:20;;;;;;;;;;;23.20;95.90;;;;;;5076346;28;20248;-80
2023/05/05 09:56:46;;;;;;;;;;;23.20;97.90;;;;;;5079354;28;20015;-79
2023/05/05 09:59:11;;;;;;;;;;;23.20;97.20;;;;;;5080412;28;19974;-79
2023/05/05 10:01:38;;;;;;;;;;;23.10;97.80;;;;;;5042582;28;19925;-79
2023/05/05 10:04:03;;;;;;;;;;;22.90;95.10;;;;;;5080714;28;19929;-79
2023/05/05 10:06:40;;;;;;;;;;;22.80;95.90;;;;;;5057444;28;20407;-79
2023/05/05 10:09:05;;;;;;;;;;;22.70;96.50;;;;;;5063186;28;19928;-80
2023/05/05 10:11:32;;;;;;;;;;;22.70;96.40;;;;;;5062328;28;19924;-80
2023/05/05 10:13:57;;;;;;;;;;;22.80;93.50;;;;;;5043616;28;19925;-80
2023/05/05 10:16:23;;;;;;;;;;;23.20;95.60;;;;;;5075168;28;19959;-81
2023/05/05 10:18:49;;;;;;;;;;;23.50;97.30;;;;;;5095941;28;19947;-81
2023/05/05 10:21:17;;;;;;;;;;;23.60;93.30;;;;;;5061251;28;19925;-81
2023/05/05 10:24:06;;;;;;;;;;;23.50;93.90;;;;;;5079960;28;19928;-81
2023/05/05 10:26:36;;;;;;;;;;;23.40;94.50;;;;;;5057399;28;20015;-81
2023/05/05 10:29:06;;;;;;;;;;;23.20;93.50;;;;;;5063273;28;19925;-81
2023/05/05 10:31:45;;;;;;;;;;;22.90;92.60;;;;;;5093604;28;19928;-86
2023/05/05 10:34:19;;;;;;;;;;;22.80;93.90;;;;;;5080223;28;19982;-82
2023/05/05 10:36:45;;;;;;;;;;;22.80;94.10;;;;;;5079327;28;19970;-82
2023/05/05 10:39:13;;;;;;;;;;;22.60;93.80;;;;;;5096157;28;19925;-81
2023/05/05 10:41:40;;;;;;;;;;;22.50;93.60;;;;;;5063139;28;20139;-81
2023/05/05 10:44:05;;;;;;;;;;;22.40;94.10;;;;;;5110844;28;19925;-81
2023/05/05 10:46:31;;;;;;;;;;;22.40;94.90;;;;;;5097149;28;19935;-81
2023/05/05 10:49:10;;;;;;;;;;;22.40;94.90;;;;;;5079146;28;19931;-81
2023/05/05 10:51:35;;;;;;;;;;;22.50;95.70;;;;;;5096273;28;19932;-81
2023/05/05 10:54:20;;;;;;;;;;;22.60;95.00;;;;;;5092992;28;19932;-80
2023/05/05 10:56:45;;;;;;;;;;;22.60;94.80;;;;;;5072001;28;19924;-82
2023/05/05 10:59:50;;;;;;;;;;;22.50;94.20;;;;;;5046045;28;19931;-82
2023/05/05 11:02:28;;;;;;;;;;;22.50;94.50;;;;;;5057088;28;19925;-82
2023/05/05 11:05:07;;;;;;;;;;;22.40;93.40;;;;;;5021280;28;19925;-82
2023/05/05 11:07:33;;;;;;;;;;;22.40;93.50;;;;;;5055597;28;19932;-82
2023/05/05 11:10:03;;;;;;;;;;;22.50;93.40;;;;;;5076791;28;19963;-82
2023/05/05 11:12:29;;;;;;;;;;;22.50;94.50;;;;;;5066697;28;19925;-80
2023/05/05 11:15:13;;;;;;;;;;;22.60;93.60;;;;;;5061294;28;19964;-80
2023/05/05 11:17:46;;;;;;;;;;;22.60;93.80;;;;;;5112431;28;20015;-81
2023/05/05 11:20:11;;;;;;;;;;;22.40;90.30;;;;;;5095765;28;20013;-80
2023/05/05 11:22:56;;;;;;;;;;;22.30;92.60;;;;;;5061711;28;20003;-81
2023/05/05 11:25:39;;;;;;;;;;;22.20;92.60;;;;;;5096065;28;19935;-82
2023/05/05 11:28:09;;;;;;;;;;;22.20;93.70;;;;;;5093055;28;19946;-81
2023/05/05 11:30:55;;;;;;;;;;;22.00;93.00;;;;;;5093628;28;19946;-81
2023/05/05 11:33:24;;;;;;;;;;;21.90;92.70;;;;;;5074974;28;19996;-82
2023/05/05 11:35:53;;;;;;;;;;;21.80;90.70;;;;;;5070750;28;19988;-82
2023/05/05 11:38:22;;;;;;;;;;;21.80;93.00;;;;;;5072271;28;19935;-86
2023/05/05 11:40:48;;;;;;;;;;;21.70;93.70;;;;;;5059976;28;19924;-82
2023/05/05 11:43:17;;;;;;;;;;;21.70;93.30;;;;;;5072156;28;19950;-81
2023/05/05 11:45:43;;;;;;;;;;;21.70;93.10;;;;;;5092910;28;19924;-82
2023/05/05 11:48:27;;;;;;;;;;;21.60;92.90;;;;;;5092390;28;20298;-82
2023/05/05 11:50:53;;;;;;;;;;;21.60;93.50;;;;;;5067259;28;19939;-82
2023/05/05 11:53:19;;;;;;;;;;;21.60;93.50;;;;;;5089246;28;19928;-82
2023/05/05 11:55:44;;;;;;;;;;;21.50;93.00;;;;;;5073646;28;19931;-82
2023/05/05 11:58:16;;;;;;;;;;;21.50;94.10;;;;;;5074633;28;20014;-81
2023/05/05 12:00:42;;;;;;;;;;;21.40;94.30;;;;;;5073696;28;19924;-82
2023/05/05 12:03:08;;;;;;;;;;;21.40;94.20;;;;;;5060504;28;19950;-82
2023/05/05 12:05:33;;;;;;;;;;;21.40;95.40;;;;;;5075871;28;19929;-82
2023/05/05 12:08:00;;;;;;;;;;;21.30;95.50;;;;;;5060414;28;20391;-81
2023/05/05 12:10:26;;;;;;;;;;;21.30;95.80;;;;;;5073811;28;19929;-81
2023/05/05 12:12:51;;;;;;;;;;;21.20;96.00;;;;;;5090391;28;19932;-82
2023/05/05 12:15:26;;;;;;;;;;;21.00;94.90;;;;;;5073106;28;19924;-82
2023/05/05 12:17:52;;;;;;;;;;;20.90;95.10;;;;;;5089933;28;19924;-83
2023/05/05 12:20:27;;;;;;;;;;;20.70;95.40;;;;;;5073458;28;20342;-82
2023/05/05 12:22:58;;;;;;;;;;;20.60;96.00;;;;;;5089692;28;20005;-83
2023/05/05 12:25:23;;;;;;;;;;;20.40;97.20;;;;;;5090857;28;19933;-83
2023/05/05 12:27:52;;;;;;;;;;;20.20;98.90;;;;;;5073783;28;19931;-83
2023/05/05 12:30:18;;;;;;;;;;;20.00;99.90;;;;;;5073746;28;19924;-82
2023/05/05 12:32:44;;;;;;;;;;;19.70;99.90;;;;;;5058499;28;19939;-82
2023/05/05 12:35:10;;;;;;;;;;;19.30;99.90;;;;;;5073308;28;19924;-80
2023/05/05 12:37:36;;;;;;;;;;;18.80;99.90;;;;;;5075488;28;19924;-79
2023/05/05 12:40:04;;;;;;;;;;;18.20;99.90;;;;;;5091012;28;19939;-78
2023/05/05 12:42:30;;;;;;;;;;;17.60;99.90;;;;;;5075656;28;19925;-77
2023/05/05 12:44:56;;;;;;;;;;;17.00;99.90;;;;;;5053086;28;19925;-75
2023/05/05 12:47:31;;;;;;;;;;;16.40;99.90;;;;;;5086671;28;19971;-75
2023/05/05 12:49:58;;;;;;;;;;;16.00;99.90;;;;;;5090985;28;19974;-76
2023/05/05 12:52:39;;;;;;;;;;;15.70;99.90;;;;;;5073642;28;19928;-76
2023/05/05 12:55:04;;;;;;;;;;;15.40;99.90;;;;;;5073698;28;19925;-76
2023/05/05 12:57:30;;;;;;;;;;;15.20;99.90;;;;;;5089672;28;19982;-76
2023/05/05 12:59:56;;;;;;;;;;;15.00;99.90;;;;;;5075561;28;19929;-75
2023/05/05 13:02:32;;;;;;;;;;;14.90;99.90;;;;;;5086469;28;20586;-75
2023/05/05 13:04:57;;;;;;;;;;;14.80;99.90;;;;;;5086730;28;19924;-75
2023/05/05 13:07:23;;;;;;;;;;;14.70;99.90;;;;;;5074314;28;20004;-77
2023/05/05 13:09:49;;;;;;;;;;;14.70;99.90;;;;;;5074200;28;19925;-77
2023/05/05 13:12:18;;;;;;;;;;;14.60;99.90;;;;;;5043838;28;19928;-76
2023/05/05 13:14:44;;;;;;;;;;;14.60;99.90;;;;;;5058401;28;20072;-76
2023/05/05 13:17:11;;;;;;;;;;;14.50;99.90;;;;;;5060806;28;20189;-76
2023/05/05 13:19:41;;;;;;;;;;;14.50;99.90;;;;;;5080864;28;19924;-76
2023/05/05 13:22:07;;;;;;;;;;;14.50;99.90;;;;;;5092124;28;19925;-77
2023/05/05 13:24:33;;;;;;;;;;;14.50;99.90;;;;;;5077863;28;20127;-77
2023/05/05 13:26:58;;;;;;;;;;;14.60;99.90;;;;;;5073420;28;19924;-77
2023/05/05 13:29:24;;;;;;;;;;;14.60;99.90;;;;;;5058497;28;19931;-77
2023/05/05 13:31:50;;;;;;;;;;;14.70;99.90;;;;;;5078648;28;19978;-77
2023/05/05 13:34:15;;;;;;;;;;;14.70;99.90;;;;;;5063408;28;19924;-78
2023/05/05 13:36:41;;;;;;;;;;;14.80;99.90;;;;;;5063201;28;19925;-78
2023/05/05 13:39:07;;;;;;;;;;;14.80;99.90;;;;;;5114296;28;20410;-78
2023/05/05 13:41:33;;;;;;;;;;;14.80;99.90;;;;;;5077865;28;19928;-77
2023/05/05 13:43:58;;;;;;;;;;;14.70;99.90;;;;;;5079240;28;19924;-77
2023/05/05 13:46:24;;;;;;;;;;;14.70;99.90;;;;;;5063249;28;20015;-77
2023/05/05 13:48:50;;;;;;;;;;;14.70;99.90;;;;;;5078839;28;19943;-77
2023/05/05 13:51:15;;;;;;;;;;;14.60;99.90;;;;;;5097732;28;19925;-76
2023/05/05 13:53:42;;;;;;;;;;;14.50;99.90;;;;;;5080515;28;19970;-76
2023/05/05 13:56:08;;;;;;;;;;;14.50;99.90;;;;;;5079970;28;19924;-76
2023/05/05 13:58:34;;;;;;;;;;;14.60;99.90;;;;;;5078921;28;19950;-76
2023/05/05 14:00:59;;;;;;;;;;;14.50;99.90;;;;;;5079706;28;20332;-76
2023/05/05 14:03:25;;;;;;;;;;;14.50;99.90;;;;;;5097840;28;20343;-75
2023/05/05 14:05:51;;;;;;;;;;;14.50;99.90;;;;;;5096500;28;19924;-75
2023/05/05 14:08:19;;;;;;;;;;;14.40;99.90;;;;;;5096866;28;19924;-75
2023/05/05 14:10:45;;;;;;;;;;;14.40;99.90;;;;;;5096695;28;19924;-75
2023/05/05 14:13:11;;;;;;;;;;;14.30;99.90;;;;;;5096904;28;19924;-75
2023/05/05 14:15:36;;;;;;;;;;;14.30;99.90;;;;;;5080225;28;19972;-75
2023/05/05 14:18:02;;;;;;;;;;;14.30;99.90;;;;;;5079695;28;20392;-75